sensor_id;sensor_type;location;lat;lon;timestamp;P1;durP1;ratioP1;P2;durP2;ratioP2
69937;SDS011;57248;47.320;15.998;2023-02-26T00:00:46;1.00;;;0.10;;
69937;SDS011;57248;47.320;15.998;2023-02-26T00:03:18;1.10;;;0.10;;
69937;SDS011;57248;47.320;15.998;2023-02-26T00:05:50;0.80;;;0.00;;
69937;SDS011;57248;47.320;15.998;2023-02-26T00:08:29;1.10;;;0.10;;
69937;SDS011;57248;47.320;15.998;2023-02-26T00:11:05;1.00;;;0.10;;
69937;SDS011;57248;47.320;15.998;2023-02-26T00:13:38;1.60;;;0.10;;
69937;SDS011;57248;47.320;15.998;2023-02-26T00:19:01;1.83;;;0.10;;
69937;SDS011;57248;47.320;15.998;2023-02-26T00:21:36;1.60;;;0.10;;
69937;SDS011;57248;47.320;15.998;2023-02-26T00:24:08;1.23;;;0.10;;
69937;SDS011;57248;47.320;15.998;2023-02-26T00:26:40;1.45;;;0.10;;
69937;SDS011;57248;47.320;15.998;2023-02-26T00:29:12;1.33;;;0.10;;
69937;SDS011;57248;47.320;15.998;2023-02-26T00:31:44;1.17;;;0.10;;
69937;SDS011;57248;47.320;15.998;2023-02-26T00:34:10;1.53;;;0.10;;
69937;SDS011;57248;47.320;15.998;2023-02-26T00:37:06;1.40;;;0.10;;
69937;SDS011;57248;47.320;15.998;2023-02-26T00:40:00;1.65;;;0.10;;
69937;SDS011;57248;47.320;15.998;2023-02-26T00:42:46;1.25;;;0.10;;
69937;SDS011;57248;47.320;15.998;2023-02-26T00:45:18;2.35;;;0.10;;
69937;SDS011;57248;47.320;15.998;2023-02-26T00:47:55;1.43;;;0.37;;
69937;SDS011;57248;47.320;15.998;2023-02-26T00:50:31;1.17;;;0.10;;
69937;SDS011;57248;47.320;15.998;2023-02-26T00:55:35;1.73;;;0.20;;
69937;SDS011;57248;47.320;15.998;2023-02-26T00:58:07;2.15;;;0.30;;
69937;SDS011;57248;47.320;15.998;2023-02-26T01:00:39;1.70;;;0.20;;
69937;SDS011;57248;47.320;15.998;2023-02-26T01:03:04;1.63;;;0.17;;
69937;SDS011;57248;47.320;15.998;2023-02-26T01:05:44;1.23;;;0.17;;
69937;SDS011;57248;47.320;15.998;2023-02-26T01:11:24;3.00;;;0.20;;
69937;SDS011;57248;47.320;15.998;2023-02-26T01:13:49;1.70;;;0.10;;
69937;SDS011;57248;47.320;15.998;2023-02-26T01:16:23;1.75;;;0.20;;
69937;SDS011;57248;47.320;15.998;2023-02-26T01:19:08;2.03;;;0.15;;
69937;SDS011;57248;47.320;15.998;2023-02-26T01:21:48;1.63;;;0.20;;
69937;SDS011;57248;47.320;15.998;2023-02-26T01:24:27;1.80;;;0.20;;
69937;SDS011;57248;47.320;15.998;2023-02-26T01:27:01;1.87;;;0.20;;
69937;SDS011;57248;47.320;15.998;2023-02-26T01:29:33;2.90;;;0.20;;
69937;SDS011;57248;47.320;15.998;2023-02-26T01:32:15;1.92;;;0.20;;
69937;SDS011;57248;47.320;15.998;2023-02-26T01:37:40;1.98;;;0.30;;
69937;SDS011;57248;47.320;15.998;2023-02-26T01:46:17;2.15;;;0.30;;
69937;SDS011;57248;47.320;15.998;2023-02-26T01:54:23;2.37;;;0.10;;
69937;SDS011;57248;47.320;15.998;2023-02-26T01:57:09;2.08;;;0.30;;
69937;SDS011;57248;47.320;15.998;2023-02-26T01:59:46;1.98;;;0.20;;
69937;SDS011;57248;47.320;15.998;2023-02-26T02:02:22;3.53;;;0.20;;
69937;SDS011;57248;47.320;15.998;2023-02-26T02:04:56;1.50;;;0.10;;
69937;SDS011;57248;47.320;15.998;2023-02-26T02:07:39;1.90;;;0.30;;
69937;SDS011;57248;47.320;15.998;2023-02-26T02:10:11;1.55;;;0.15;;
69937;SDS011;57248;47.320;15.998;2023-02-26T02:15:19;2.00;;;0.20;;
69937;SDS011;57248;47.320;15.998;2023-02-26T02:18:11;1.92;;;0.20;;
69937;SDS011;57248;47.320;15.998;2023-02-26T02:24:24;2.00;;;0.20;;
69937;SDS011;57248;47.320;15.998;2023-02-26T02:27:21;1.70;;;0.30;;
69937;SDS011;57248;47.320;15.998;2023-02-26T02:30:17;2.17;;;0.20;;
69937;SDS011;57248;47.320;15.998;2023-02-26T02:33:15;4.32;;;0.50;;
69937;SDS011;57248;47.320;15.998;2023-02-26T02:35:51;4.13;;;0.30;;
69937;SDS011;57248;47.320;15.998;2023-02-26T02:41:46;1.88;;;0.20;;
69937;SDS011;57248;47.320;15.998;2023-02-26T02:44:23;2.25;;;0.20;;
69937;SDS011;57248;47.320;15.998;2023-02-26T02:46:58;2.15;;;0.25;;
69937;SDS011;57248;47.320;15.998;2023-02-26T02:49:34;2.83;;;0.30;;
69937;SDS011;57248;47.320;15.998;2023-02-26T02:52:27;8.25;;;1.60;;
69937;SDS011;57248;47.320;15.998;2023-02-26T02:55:05;6.82;;;1.10;;
69937;SDS011;57248;47.320;15.998;2023-02-26T02:57:45;4.00;;;0.73;;
69937;SDS011;57248;47.320;15.998;2023-02-26T03:00:23;3.45;;;0.70;;
69937;SDS011;57248;47.320;15.998;2023-02-26T03:03:05;2.93;;;0.37;;
69937;SDS011;57248;47.320;15.998;2023-02-26T03:05:39;5.47;;;0.88;;
69937;SDS011;57248;47.320;15.998;2023-02-26T03:08:27;5.88;;;0.98;;
69937;SDS011;57248;47.320;15.998;2023-02-26T03:11:01;4.22;;;0.63;;
69937;SDS011;57248;47.320;15.998;2023-02-26T03:13:34;4.90;;;0.82;;
69937;SDS011;57248;47.320;15.998;2023-02-26T03:25:11;2.97;;;0.50;;
69937;SDS011;57248;47.320;15.998;2023-02-26T03:30:43;3.03;;;0.40;;
69937;SDS011;57248;47.320;15.998;2023-02-26T03:33:23;2.00;;;0.40;;
69937;SDS011;57248;47.320;15.998;2023-02-26T03:36:03;2.92;;;0.40;;
69937;SDS011;57248;47.320;15.998;2023-02-26T03:38:57;3.63;;;0.50;;
69937;SDS011;57248;47.320;15.998;2023-02-26T03:41:54;2.55;;;0.50;;
69937;SDS011;57248;47.320;15.998;2023-02-26T03:44:56;2.97;;;0.57;;
69937;SDS011;57248;47.320;15.998;2023-02-26T03:47:32;5.03;;;0.63;;
69937;SDS011;57248;47.320;15.998;2023-02-26T03:50:19;2.83;;;0.55;;
69937;SDS011;57248;47.320;15.998;2023-02-26T03:53:18;3.42;;;0.60;;
69937;SDS011;57248;47.320;15.998;2023-02-26T03:56:06;3.22;;;0.50;;
69937;SDS011;57248;47.320;15.998;2023-02-26T03:59:24;2.90;;;0.50;;
69937;SDS011;57248;47.320;15.998;2023-02-26T04:02:19;3.60;;;0.55;;
69937;SDS011;57248;47.320;15.998;2023-02-26T04:05:09;3.35;;;0.60;;
69937;SDS011;57248;47.320;15.998;2023-02-26T04:07:46;3.13;;;0.60;;
69937;SDS011;57248;47.320;15.998;2023-02-26T04:10:39;3.63;;;0.98;;
69937;SDS011;57248;47.320;15.998;2023-02-26T04:13:14;3.43;;;0.77;;
69937;SDS011;57248;47.320;15.998;2023-02-26T04:15:47;2.83;;;0.50;;
69937;SDS011;57248;47.320;15.998;2023-02-26T04:18:19;3.83;;;0.70;;
69937;SDS011;57248;47.320;15.998;2023-02-26T04:20:52;3.83;;;0.75;;
69937;SDS011;57248;47.320;15.998;2023-02-26T04:23:25;3.35;;;0.57;;
69937;SDS011;57248;47.320;15.998;2023-02-26T04:25:57;3.10;;;0.60;;
69937;SDS011;57248;47.320;15.998;2023-02-26T04:28:29;2.72;;;0.50;;
69937;SDS011;57248;47.320;15.998;2023-02-26T04:30:55;2.83;;;0.40;;
69937;SDS011;57248;47.320;15.998;2023-02-26T04:33:27;2.57;;;0.23;;
69937;SDS011;57248;47.320;15.998;2023-02-26T04:35:59;2.38;;;0.38;;
69937;SDS011;57248;47.320;15.998;2023-02-26T04:38:31;2.13;;;0.30;;
69937;SDS011;57248;47.320;15.998;2023-02-26T04:41:03;3.30;;;0.50;;
69937;SDS011;57248;47.320;15.998;2023-02-26T04:43:35;2.83;;;0.70;;
69937;SDS011;57248;47.320;15.998;2023-02-26T04:46:18;2.73;;;0.30;;
69937;SDS011;57248;47.320;15.998;2023-02-26T04:48:52;3.08;;;0.60;;
69937;SDS011;57248;47.320;15.998;2023-02-26T04:51:24;2.53;;;0.50;;
69937;SDS011;57248;47.320;15.998;2023-02-26T04:54:03;2.67;;;0.40;;
69937;SDS011;57248;47.320;15.998;2023-02-26T04:56:36;3.05;;;0.32;;
69937;SDS011;57248;47.320;15.998;2023-02-26T04:59:09;2.17;;;0.30;;
69937;SDS011;57248;47.320;15.998;2023-02-26T05:01:35;1.73;;;0.20;;
69937;SDS011;57248;47.320;15.998;2023-02-26T05:04:07;2.08;;;0.20;;
69937;SDS011;57248;47.320;15.998;2023-02-26T05:06:42;2.23;;;0.20;;
69937;SDS011;57248;47.320;15.998;2023-02-26T05:09:28;2.17;;;0.20;;
69937;SDS011;57248;47.320;15.998;2023-02-26T05:12:00;2.47;;;0.40;;
69937;SDS011;57248;47.320;15.998;2023-02-26T05:14:32;2.70;;;0.35;;
69937;SDS011;57248;47.320;15.998;2023-02-26T05:17:05;2.28;;;0.20;;
69937;SDS011;57248;47.320;15.998;2023-02-26T05:19:37;2.23;;;0.30;;
69937;SDS011;57248;47.320;15.998;2023-02-26T05:22:09;2.05;;;0.22;;
69937;SDS011;57248;47.320;15.998;2023-02-26T05:24:34;2.40;;;0.30;;
69937;SDS011;57248;47.320;15.998;2023-02-26T05:27:07;2.80;;;0.32;;
69937;SDS011;57248;47.320;15.998;2023-02-26T05:29:43;2.22;;;0.38;;
69937;SDS011;57248;47.320;15.998;2023-02-26T05:32:16;2.75;;;0.40;;
69937;SDS011;57248;47.320;15.998;2023-02-26T05:34:48;2.50;;;0.30;;
69937;SDS011;57248;47.320;15.998;2023-02-26T05:37:20;2.40;;;0.20;;
69937;SDS011;57248;47.320;15.998;2023-02-26T05:39:52;2.08;;;0.30;;
69937;SDS011;57248;47.320;15.998;2023-02-26T05:42:24;2.75;;;0.30;;
69937;SDS011;57248;47.320;15.998;2023-02-26T05:44:56;2.47;;;0.38;;
69937;SDS011;57248;47.320;15.998;2023-02-26T05:47:28;3.65;;;0.80;;
69937;SDS011;57248;47.320;15.998;2023-02-26T05:50:00;10.97;;;3.33;;
69937;SDS011;57248;47.320;15.998;2023-02-26T05:52:32;9.07;;;2.40;;
69937;SDS011;57248;47.320;15.998;2023-02-26T05:55:04;4.40;;;1.13;;
69937;SDS011;57248;47.320;15.998;2023-02-26T05:57:37;4.32;;;1.23;;
69937;SDS011;57248;47.320;15.998;2023-02-26T06:00:09;3.90;;;0.93;;
69937;SDS011;57248;47.320;15.998;2023-02-26T06:02:42;5.33;;;1.50;;
69937;SDS011;57248;47.320;15.998;2023-02-26T06:05:14;4.88;;;1.13;;
69937;SDS011;57248;47.320;15.998;2023-02-26T06:07:46;3.67;;;0.70;;
69937;SDS011;57248;47.320;15.998;2023-02-26T06:10:25;6.63;;;2.00;;
69937;SDS011;57248;47.320;15.998;2023-02-26T06:12:57;8.82;;;4.00;;
69937;SDS011;57248;47.320;15.998;2023-02-26T06:15:29;4.57;;;1.10;;
69937;SDS011;57248;47.320;15.998;2023-02-26T06:18:01;3.40;;;0.55;;
69937;SDS011;57248;47.320;15.998;2023-02-26T06:20:33;4.68;;;1.65;;
69937;SDS011;57248;47.320;15.998;2023-02-26T06:23:05;4.18;;;1.15;;
69937;SDS011;57248;47.320;15.998;2023-02-26T06:25:37;3.35;;;0.70;;
69937;SDS011;57248;47.320;15.998;2023-02-26T06:28:09;2.50;;;0.30;;
69937;SDS011;57248;47.320;15.998;2023-02-26T06:30:41;3.45;;;0.70;;
69937;SDS011;57248;47.320;15.998;2023-02-26T06:33:13;9.43;;;2.40;;
69937;SDS011;57248;47.320;15.998;2023-02-26T06:35:45;5.53;;;1.73;;
69937;SDS011;57248;47.320;15.998;2023-02-26T06:38:17;4.18;;;0.90;;
69937;SDS011;57248;47.320;15.998;2023-02-26T06:40:50;5.03;;;1.40;;
69937;SDS011;57248;47.320;15.998;2023-02-26T06:43:23;2.90;;;0.47;;
69937;SDS011;57248;47.320;15.998;2023-02-26T06:45:58;2.45;;;0.47;;
69937;SDS011;57248;47.320;15.998;2023-02-26T06:48:30;3.00;;;0.95;;
69937;SDS011;57248;47.320;15.998;2023-02-26T06:51:03;5.57;;;1.90;;
69937;SDS011;57248;47.320;15.998;2023-02-26T06:53:35;5.70;;;1.43;;
69937;SDS011;57248;47.320;15.998;2023-02-26T06:56:07;4.95;;;1.42;;
69937;SDS011;57248;47.320;15.998;2023-02-26T06:58:39;3.10;;;0.50;;
69937;SDS011;57248;47.320;15.998;2023-02-26T07:01:11;2.83;;;0.52;;
69937;SDS011;57248;47.320;15.998;2023-02-26T07:03:43;2.92;;;0.80;;
69937;SDS011;57248;47.320;15.998;2023-02-26T07:06:15;2.80;;;0.60;;
69937;SDS011;57248;47.320;15.998;2023-02-26T07:08:55;5.18;;;1.80;;
69937;SDS011;57248;47.320;15.998;2023-02-26T07:11:28;3.40;;;0.80;;
69937;SDS011;57248;47.320;15.998;2023-02-26T07:14:00;2.47;;;0.60;;
69937;SDS011;57248;47.320;15.998;2023-02-26T07:16:33;3.65;;;0.70;;
69937;SDS011;57248;47.320;15.998;2023-02-26T07:19:05;3.03;;;0.60;;
69937;SDS011;57248;47.320;15.998;2023-02-26T07:21:37;2.15;;;0.47;;
69937;SDS011;57248;47.320;15.998;2023-02-26T07:24:10;2.83;;;0.75;;
69937;SDS011;57248;47.320;15.998;2023-02-26T07:26:43;3.92;;;0.80;;
69937;SDS011;57248;47.320;15.998;2023-02-26T07:29:15;5.65;;;1.90;;
69937;SDS011;57248;47.320;15.998;2023-02-26T07:31:48;5.53;;;1.73;;
69937;SDS011;57248;47.320;15.998;2023-02-26T07:34:20;2.75;;;0.60;;
69937;SDS011;57248;47.320;15.998;2023-02-26T07:36:52;2.80;;;0.50;;
69937;SDS011;57248;47.320;15.998;2023-02-26T07:39:24;3.67;;;1.35;;
69937;SDS011;57248;47.320;15.998;2023-02-26T07:41:57;3.20;;;0.50;;
69937;SDS011;57248;47.320;15.998;2023-02-26T07:44:29;2.53;;;0.30;;
69937;SDS011;57248;47.320;15.998;2023-02-26T07:47:01;2.58;;;0.60;;
69937;SDS011;57248;47.320;15.998;2023-02-26T07:49:33;3.25;;;0.75;;
69937;SDS011;57248;47.320;15.998;2023-02-26T07:52:05;5.07;;;1.20;;
69937;SDS011;57248;47.320;15.998;2023-02-26T07:54:32;4.80;;;0.98;;
69937;SDS011;57248;47.320;15.998;2023-02-26T07:57:09;2.97;;;0.43;;
69937;SDS011;57248;47.320;15.998;2023-02-26T07:59:41;4.22;;;1.10;;
69937;SDS011;57248;47.320;15.998;2023-02-26T08:02:13;5.47;;;1.40;;
69937;SDS011;57248;47.320;15.998;2023-02-26T08:04:45;3.28;;;0.45;;
69937;SDS011;57248;47.320;15.998;2023-02-26T08:07:17;2.95;;;0.40;;
69937;SDS011;57248;47.320;15.998;2023-02-26T08:09:50;2.97;;;0.60;;
69937;SDS011;57248;47.320;15.998;2023-02-26T08:12:22;1.33;;;0.22;;
69937;SDS011;57248;47.320;15.998;2023-02-26T08:14:54;2.05;;;0.50;;
69937;SDS011;57248;47.320;15.998;2023-02-26T08:17:26;1.88;;;0.30;;
69937;SDS011;57248;47.320;15.998;2023-02-26T08:19:58;2.75;;;0.85;;
69937;SDS011;57248;47.320;15.998;2023-02-26T08:22:31;3.20;;;0.63;;
69937;SDS011;57248;47.320;15.998;2023-02-26T08:25:03;1.95;;;0.50;;
69937;SDS011;57248;47.320;15.998;2023-02-26T08:27:35;2.22;;;0.35;;
69937;SDS011;57248;47.320;15.998;2023-02-26T08:30:07;1.98;;;0.30;;
69937;SDS011;57248;47.320;15.998;2023-02-26T08:32:45;1.55;;;0.30;;
69937;SDS011;57248;47.320;15.998;2023-02-26T08:35:17;1.27;;;0.30;;
69937;SDS011;57248;47.320;15.998;2023-02-26T08:37:49;1.95;;;0.20;;
69937;SDS011;57248;47.320;15.998;2023-02-26T08:40:21;0.60;;;0.10;;
69937;SDS011;57248;47.320;15.998;2023-02-26T08:42:54;1.05;;;0.10;;
69937;SDS011;57248;47.320;15.998;2023-02-26T08:45:26;0.80;;;0.10;;
69937;SDS011;57248;47.320;15.998;2023-02-26T08:47:51;1.40;;;0.20;;
69937;SDS011;57248;47.320;15.998;2023-02-26T08:50:26;1.08;;;0.10;;
69937;SDS011;57248;47.320;15.998;2023-02-26T08:52:59;1.67;;;0.20;;
69937;SDS011;57248;47.320;15.998;2023-02-26T08:55:31;0.97;;;0.10;;
69937;SDS011;57248;47.320;15.998;2023-02-26T08:58:03;1.45;;;0.20;;
69937;SDS011;57248;47.320;15.998;2023-02-26T09:00:36;1.25;;;0.20;;
69937;SDS011;57248;47.320;15.998;2023-02-26T09:03:08;1.42;;;0.30;;
69937;SDS011;57248;47.320;15.998;2023-02-26T09:05:41;0.82;;;0.20;;
69937;SDS011;57248;47.320;15.998;2023-02-26T09:08:13;1.00;;;0.30;;
69937;SDS011;57248;47.320;15.998;2023-02-26T09:10:52;0.82;;;0.17;;
69937;SDS011;57248;47.320;15.998;2023-02-26T09:13:24;1.02;;;0.20;;
69937;SDS011;57248;47.320;15.998;2023-02-26T09:15:49;1.57;;;0.20;;
69937;SDS011;57248;47.320;15.998;2023-02-26T09:18:22;1.40;;;0.20;;
69937;SDS011;57248;47.320;15.998;2023-02-26T09:20:55;1.65;;;0.20;;
69937;SDS011;57248;47.320;15.998;2023-02-26T09:23:27;0.90;;;0.20;;
69937;SDS011;57248;47.320;15.998;2023-02-26T09:25:59;1.47;;;0.30;;
69937;SDS011;57248;47.320;15.998;2023-02-26T09:28:32;1.15;;;0.30;;
69937;SDS011;57248;47.320;15.998;2023-02-26T09:31:05;1.75;;;0.35;;
69937;SDS011;57248;47.320;15.998;2023-02-26T09:33:37;1.30;;;0.30;;
69937;SDS011;57248;47.320;15.998;2023-02-26T09:36:10;1.67;;;0.40;;
69937;SDS011;57248;47.320;15.998;2023-02-26T09:38:45;1.90;;;0.50;;
69937;SDS011;57248;47.320;15.998;2023-02-26T09:41:23;2.35;;;0.50;;
69937;SDS011;57248;47.320;15.998;2023-02-26T09:49:27;1.40;;;0.30;;
69937;SDS011;57248;47.320;15.998;2023-02-26T09:55:52;2.40;;;0.40;;
69937;SDS011;57248;47.320;15.998;2023-02-26T09:58:12;1.55;;;0.40;;
69937;SDS011;57248;47.320;15.998;2023-02-26T10:10:08;1.70;;;0.32;;
69937;SDS011;57248;47.320;15.998;2023-02-26T10:12:43;1.65;;;0.40;;
69937;SDS011;57248;47.320;15.998;2023-02-26T10:15:18;1.80;;;0.30;;
69937;SDS011;57248;47.320;15.998;2023-02-26T10:20:46;1.50;;;0.27;;
69937;SDS011;57248;47.320;15.998;2023-02-26T10:23:49;1.40;;;0.30;;
69937;SDS011;57248;47.320;15.998;2023-02-26T10:26:25;1.17;;;0.10;;
69937;SDS011;57248;47.320;15.998;2023-02-26T10:29:10;2.28;;;0.30;;
69937;SDS011;57248;47.320;15.998;2023-02-26T10:40:37;1.58;;;0.45;;
69937;SDS011;57248;47.320;15.998;2023-02-26T10:43:15;2.25;;;0.40;;
69937;SDS011;57248;47.320;15.998;2023-02-26T10:51:25;1.70;;;0.30;;
69937;SDS011;57248;47.320;15.998;2023-02-26T10:57:04;1.90;;;0.30;;
69937;SDS011;57248;47.320;15.998;2023-02-26T10:59:40;1.83;;;0.30;;
69937;SDS011;57248;47.320;15.998;2023-02-26T11:02:34;1.53;;;0.20;;
69937;SDS011;57248;47.320;15.998;2023-02-26T11:05:18;1.75;;;0.55;;
69937;SDS011;57248;47.320;15.998;2023-02-26T11:08:02;2.17;;;0.30;;
69937;SDS011;57248;47.320;15.998;2023-02-26T11:10:47;2.10;;;0.50;;
69937;SDS011;57248;47.320;15.998;2023-02-26T11:13:24;1.98;;;0.50;;
69937;SDS011;57248;47.320;15.998;2023-02-26T11:15:57;2.20;;;0.40;;
69937;SDS011;57248;47.320;15.998;2023-02-26T11:18:49;2.33;;;0.70;;
69937;SDS011;57248;47.320;15.998;2023-02-26T11:21:28;1.90;;;0.40;;
69937;SDS011;57248;47.320;15.998;2023-02-26T11:24:08;1.92;;;0.50;;
69937;SDS011;57248;47.320;15.998;2023-02-26T11:27:08;2.70;;;0.85;;
69937;SDS011;57248;47.320;15.998;2023-02-26T11:29:46;2.30;;;0.80;;
69937;SDS011;57248;47.320;15.998;2023-02-26T11:32:22;1.60;;;0.50;;
69937;SDS011;57248;47.320;15.998;2023-02-26T11:35:00;1.67;;;0.60;;
69937;SDS011;57248;47.320;15.998;2023-02-26T11:37:34;1.60;;;0.40;;
69937;SDS011;57248;47.320;15.998;2023-02-26T11:40:16;1.63;;;0.40;;
69937;SDS011;57248;47.320;15.998;2023-02-26T11:42:57;2.00;;;0.40;;
69937;SDS011;57248;47.320;15.998;2023-02-26T11:45:32;2.03;;;0.30;;
69937;SDS011;57248;47.320;15.998;2023-02-26T11:48:10;1.17;;;0.30;;
69937;SDS011;57248;47.320;15.998;2023-02-26T11:50:46;1.55;;;0.20;;
69937;SDS011;57248;47.320;15.998;2023-02-26T11:56:30;2.70;;;0.30;;
69937;SDS011;57248;47.320;15.998;2023-02-26T11:59:19;1.33;;;0.15;;
69937;SDS011;57248;47.320;15.998;2023-02-26T12:01:53;1.40;;;0.20;;
69937;SDS011;57248;47.320;15.998;2023-02-26T12:04:25;1.30;;;0.10;;
69937;SDS011;57248;47.320;15.998;2023-02-26T12:07:04;2.58;;;0.20;;
69937;SDS011;57248;47.320;15.998;2023-02-26T12:09:37;1.23;;;0.20;;
69937;SDS011;57248;47.320;15.998;2023-02-26T12:20:34;0.88;;;0.10;;
69937;SDS011;57248;47.320;15.998;2023-02-26T12:23:27;2.03;;;0.17;;
69937;SDS011;57248;47.320;15.998;2023-02-26T12:35:01;1.45;;;0.20;;
69937;SDS011;57248;47.320;15.998;2023-02-26T12:37:59;2.13;;;0.30;;
69937;SDS011;57248;47.320;15.998;2023-02-26T12:43:41;1.50;;;0.20;;
69937;SDS011;57248;47.320;15.998;2023-02-26T12:55:12;1.90;;;0.20;;
69937;SDS011;57248;47.320;15.998;2023-02-26T12:58:08;1.60;;;0.30;;
69937;SDS011;57248;47.320;15.998;2023-02-26T13:04:24;1.17;;;0.20;;
69937;SDS011;57248;47.320;15.998;2023-02-26T13:07:44;0.90;;;0.10;;
69937;SDS011;57248;47.320;15.998;2023-02-26T13:13:40;1.20;;;0.10;;
69937;SDS011;57248;47.320;15.998;2023-02-26T13:16:21;0.93;;;0.10;;
69937;SDS011;57248;47.320;15.998;2023-02-26T13:25:15;1.50;;;0.17;;
69937;SDS011;57248;47.320;15.998;2023-02-26T13:27:49;1.05;;;0.10;;
69937;SDS011;57248;47.320;15.998;2023-02-26T13:30:35;1.42;;;0.10;;
69937;SDS011;57248;47.320;15.998;2023-02-26T13:33:17;1.65;;;0.20;;
69937;SDS011;57248;47.320;15.998;2023-02-26T13:35:51;1.20;;;0.10;;
69937;SDS011;57248;47.320;15.998;2023-02-26T13:41:56;1.20;;;0.20;;
69937;SDS011;57248;47.320;15.998;2023-02-26T13:50:44;2.00;;;0.30;;
69937;SDS011;57248;47.320;15.998;2023-02-26T13:56:06;1.50;;;0.13;;
69937;SDS011;57248;47.320;15.998;2023-02-26T13:58:51;1.38;;;0.10;;
69937;SDS011;57248;47.320;15.998;2023-02-26T14:01:27;1.35;;;0.20;;
69937;SDS011;57248;47.320;15.998;2023-02-26T14:06:59;2.10;;;0.13;;
69937;SDS011;57248;47.320;15.998;2023-02-26T14:09:46;1.60;;;0.20;;
69937;SDS011;57248;47.320;15.998;2023-02-26T14:12:41;1.98;;;0.20;;
69937;SDS011;57248;47.320;15.998;2023-02-26T14:15:26;1.42;;;0.20;;
69937;SDS011;57248;47.320;15.998;2023-02-26T14:18:04;2.23;;;0.20;;
69937;SDS011;57248;47.320;15.998;2023-02-26T14:20:49;1.33;;;0.10;;
69937;SDS011;57248;47.320;15.998;2023-02-26T14:23:26;2.10;;;0.20;;
69937;SDS011;57248;47.320;15.998;2023-02-26T14:26:10;2.75;;;0.20;;
69937;SDS011;57248;47.320;15.998;2023-02-26T14:28:53;1.00;;;0.10;;
69937;SDS011;57248;47.320;15.998;2023-02-26T14:31:46;2.03;;;0.30;;
69937;SDS011;57248;47.320;15.998;2023-02-26T14:36:54;1.33;;;0.20;;
69937;SDS011;57248;47.320;15.998;2023-02-26T14:39:31;1.50;;;0.20;;
69937;SDS011;57248;47.320;15.998;2023-02-26T14:42:11;1.52;;;0.20;;
69937;SDS011;57248;47.320;15.998;2023-02-26T14:44:50;1.77;;;0.10;;
69937;SDS011;57248;47.320;15.998;2023-02-26T14:47:29;1.80;;;0.22;;
69937;SDS011;57248;47.320;15.998;2023-02-26T14:49:54;1.80;;;0.20;;
69937;SDS011;57248;47.320;15.998;2023-02-26T15:04:05;1.20;;;0.07;;
69937;SDS011;57248;47.320;15.998;2023-02-26T15:09:46;4.55;;;0.93;;
69937;SDS011;57248;47.320;15.998;2023-02-26T15:12:41;5.43;;;1.42;;
69937;SDS011;57248;47.320;15.998;2023-02-26T15:21:20;5.10;;;1.05;;
69937;SDS011;57248;47.320;15.998;2023-02-26T15:24:02;2.25;;;0.40;;
69937;SDS011;57248;47.320;15.998;2023-02-26T15:26:37;5.68;;;0.63;;
69937;SDS011;57248;47.320;15.998;2023-02-26T15:29:16;2.60;;;0.28;;
69937;SDS011;57248;47.320;15.998;2023-02-26T15:31:57;2.53;;;0.37;;
69937;SDS011;57248;47.320;15.998;2023-02-26T15:34:33;2.13;;;0.30;;
69937;SDS011;57248;47.320;15.998;2023-02-26T15:37:14;2.30;;;0.20;;
69937;SDS011;57248;47.320;15.998;2023-02-26T15:39:51;1.63;;;0.20;;
69937;SDS011;57248;47.320;15.998;2023-02-26T15:42:28;3.40;;;0.52;;
69937;SDS011;57248;47.320;15.998;2023-02-26T15:45:25;2.43;;;0.27;;
69937;SDS011;57248;47.320;15.998;2023-02-26T15:47:59;2.25;;;0.20;;
69937;SDS011;57248;47.320;15.998;2023-02-26T15:50:37;3.30;;;0.57;;
69937;SDS011;57248;47.320;15.998;2023-02-26T15:53:15;3.15;;;0.30;;
69937;SDS011;57248;47.320;15.998;2023-02-26T15:55:53;3.42;;;0.50;;
69937;SDS011;57248;47.320;15.998;2023-02-26T15:58:41;5.00;;;1.00;;
69937;SDS011;57248;47.320;15.998;2023-02-26T16:01:17;2.05;;;0.17;;
69937;SDS011;57248;47.320;15.998;2023-02-26T16:03:51;2.47;;;0.30;;
69937;SDS011;57248;47.320;15.998;2023-02-26T16:06:29;2.20;;;0.28;;
69937;SDS011;57248;47.320;15.998;2023-02-26T16:09:04;1.83;;;0.30;;
69937;SDS011;57248;47.320;15.998;2023-02-26T16:11:46;2.93;;;0.30;;
69937;SDS011;57248;47.320;15.998;2023-02-26T16:14:21;2.50;;;0.22;;
69937;SDS011;57248;47.320;15.998;2023-02-26T16:16:56;2.35;;;0.30;;
69937;SDS011;57248;47.320;15.998;2023-02-26T16:19:34;1.98;;;0.10;;
69937;SDS011;57248;47.320;15.998;2023-02-26T16:22:28;2.28;;;0.20;;
69937;SDS011;57248;47.320;15.998;2023-02-26T16:25:14;3.00;;;0.40;;
69937;SDS011;57248;47.320;15.998;2023-02-26T16:27:54;5.43;;;0.90;;
69937;SDS011;57248;47.320;15.998;2023-02-26T16:30:33;1.60;;;0.10;;
69937;SDS011;57248;47.320;15.998;2023-02-26T16:33:10;2.45;;;0.30;;
69937;SDS011;57248;47.320;15.998;2023-02-26T16:35:47;1.90;;;0.10;;
69937;SDS011;57248;47.320;15.998;2023-02-26T16:38:24;1.60;;;0.10;;
69937;SDS011;57248;47.320;15.998;2023-02-26T16:41:13;2.42;;;0.30;;
69937;SDS011;57248;47.320;15.998;2023-02-26T16:43:52;2.38;;;0.30;;
69937;SDS011;57248;47.320;15.998;2023-02-26T16:46:42;1.52;;;0.15;;
69937;SDS011;57248;47.320;15.998;2023-02-26T16:51:53;1.30;;;0.10;;
69937;SDS011;57248;47.320;15.998;2023-02-26T16:54:29;2.53;;;0.20;;
69937;SDS011;57248;47.320;15.998;2023-02-26T16:57:07;1.90;;;0.20;;
69937;SDS011;57248;47.320;15.998;2023-02-26T16:59:51;1.55;;;0.10;;
69937;SDS011;57248;47.320;15.998;2023-02-26T17:02:28;3.63;;;0.30;;
69937;SDS011;57248;47.320;15.998;2023-02-26T17:05:13;3.47;;;0.43;;
69937;SDS011;57248;47.320;15.998;2023-02-26T17:08:04;2.65;;;0.20;;
69937;SDS011;57248;47.320;15.998;2023-02-26T17:11:00;1.73;;;0.20;;
69937;SDS011;57248;47.320;15.998;2023-02-26T17:13:32;2.08;;;0.20;;
69937;SDS011;57248;47.320;15.998;2023-02-26T17:16:08;2.78;;;0.30;;
69937;SDS011;57248;47.320;15.998;2023-02-26T17:18:43;2.70;;;0.37;;
69937;SDS011;57248;47.320;15.998;2023-02-26T17:21:16;1.70;;;0.20;;
69937;SDS011;57248;47.320;15.998;2023-02-26T17:23:48;2.15;;;0.25;;
69937;SDS011;57248;47.320;15.998;2023-02-26T17:26:14;3.03;;;0.20;;
69937;SDS011;57248;47.320;15.998;2023-02-26T17:28:49;1.75;;;0.20;;
69937;SDS011;57248;47.320;15.998;2023-02-26T17:31:21;3.33;;;0.43;;
69937;SDS011;57248;47.320;15.998;2023-02-26T17:33:53;2.17;;;0.38;;
69937;SDS011;57248;47.320;15.998;2023-02-26T17:36:25;2.67;;;0.32;;
69937;SDS011;57248;47.320;15.998;2023-02-26T17:38:58;2.70;;;0.43;;
69937;SDS011;57248;47.320;15.998;2023-02-26T17:41:32;2.67;;;0.32;;
69937;SDS011;57248;47.320;15.998;2023-02-26T17:44:04;2.53;;;0.33;;
69937;SDS011;57248;47.320;15.998;2023-02-26T17:46:36;3.10;;;0.47;;
69937;SDS011;57248;47.320;15.998;2023-02-26T17:49:08;2.40;;;0.47;;
69937;SDS011;57248;47.320;15.998;2023-02-26T17:51:42;3.10;;;0.55;;
69937;SDS011;57248;47.320;15.998;2023-02-26T17:54:14;4.05;;;0.40;;
69937;SDS011;57248;47.320;15.998;2023-02-26T17:56:46;3.23;;;0.60;;
69937;SDS011;57248;47.320;15.998;2023-02-26T17:59:22;3.20;;;0.55;;
69937;SDS011;57248;47.320;15.998;2023-02-26T18:02:30;2.83;;;0.50;;
69937;SDS011;57248;47.320;15.998;2023-02-26T18:05:02;2.70;;;0.32;;
69937;SDS011;57248;47.320;15.998;2023-02-26T18:07:28;2.60;;;0.40;;
69937;SDS011;57248;47.320;15.998;2023-02-26T18:10:00;3.33;;;0.60;;
69937;SDS011;57248;47.320;15.998;2023-02-26T18:12:39;2.78;;;0.45;;
69937;SDS011;57248;47.320;15.998;2023-02-26T18:15:13;2.42;;;0.20;;
69937;SDS011;57248;47.320;15.998;2023-02-26T18:17:45;2.80;;;0.37;;
69937;SDS011;57248;47.320;15.998;2023-02-26T18:20:19;3.63;;;0.70;;